Riverside Park, Nebraska
Current Conditions -  °F | °C
As of 1:15 PM on Friday 28 Nov 2014 (Local Time) from KAUH Reporting Station
Clear Clear  
Wind Chill: 67°   Ceiling: Unl
Heat Index: 67°   Visibility: 10mi
Dew Point: 30°   Wind: 13mph
Humidity: 26%   Direction: 220°SW
Pressure: 29.69"   Gusts: NA
Location:  41.1764°N, 98.0095°W
Report Text: KAUH 281915Z AUTO 22011KT 10SM CLR 19/M01 A2969 RMK AO2 T01941009
Loading
Personal Weather Stations






























Interactive Weather Map New forecast layout! Learn more

10-Day Weather Forecast

Advertisements
Track Severe Weather on mobile